sensor_id;sensor_type;location;lat;lon;timestamp;P1;durP1;ratioP1;P2;durP2;ratioP2
61252;SDS011;47127;47.516;8.596;2023-07-29T00:00:44;5.70;;;2.78;;
61252;SDS011;47127;47.516;8.596;2023-07-29T00:03:10;6.63;;;2.47;;
61252;SDS011;47127;47.516;8.596;2023-07-29T00:05:38;6.85;;;2.55;;
61252;SDS011;47127;47.516;8.596;2023-07-29T00:08:05;5.60;;;2.88;;
61252;SDS011;47127;47.516;8.596;2023-07-29T00:10:31;7.63;;;3.17;;
61252;SDS011;47127;47.516;8.596;2023-07-29T00:12:57;4.80;;;2.53;;
61252;SDS011;47127;47.516;8.596;2023-07-29T00:15:23;6.35;;;2.97;;
61252;SDS011;47127;47.516;8.596;2023-07-29T00:17:49;5.53;;;2.90;;
61252;SDS011;47127;47.516;8.596;2023-07-29T00:20:14;4.60;;;2.92;;
61252;SDS011;47127;47.516;8.596;2023-07-29T00:22:40;4.35;;;2.85;;
61252;SDS011;47127;47.516;8.596;2023-07-29T00:25:06;6.07;;;2.80;;
61252;SDS011;47127;47.516;8.596;2023-07-29T00:27:32;4.88;;;2.53;;
61252;SDS011;47127;47.516;8.596;2023-07-29T00:29:58;5.03;;;2.67;;
61252;SDS011;47127;47.516;8.596;2023-07-29T00:32:23;5.00;;;2.22;;
61252;SDS011;47127;47.516;8.596;2023-07-29T00:34:50;4.65;;;2.50;;
61252;SDS011;47127;47.516;8.596;2023-07-29T00:37:16;8.77;;;5.28;;
61252;SDS011;47127;47.516;8.596;2023-07-29T00:39:41;10.98;;;8.55;;
61252;SDS011;47127;47.516;8.596;2023-07-29T00:42:07;12.23;;;7.97;;
61252;SDS011;47127;47.516;8.596;2023-07-29T00:44:33;9.38;;;6.53;;
61252;SDS011;47127;47.516;8.596;2023-07-29T00:46:59;8.73;;;6.13;;
61252;SDS011;47127;47.516;8.596;2023-07-29T00:49:27;8.85;;;5.63;;
61252;SDS011;47127;47.516;8.596;2023-07-29T00:51:53;11.73;;;5.93;;
61252;SDS011;47127;47.516;8.596;2023-07-29T00:54:19;11.40;;;5.65;;
61252;SDS011;47127;47.516;8.596;2023-07-29T00:56:45;10.40;;;6.35;;
61252;SDS011;47127;47.516;8.596;2023-07-29T00:59:10;8.95;;;5.47;;
61252;SDS011;47127;47.516;8.596;2023-07-29T01:01:36;9.30;;;5.28;;
61252;SDS011;47127;47.516;8.596;2023-07-29T01:04:02;8.48;;;5.57;;
61252;SDS011;47127;47.516;8.596;2023-07-29T01:06:41;9.55;;;5.40;;
61252;SDS011;47127;47.516;8.596;2023-07-29T01:09:20;9.18;;;5.07;;
61252;SDS011;47127;47.516;8.596;2023-07-29T01:17:15;8.88;;;3.58;;
61252;SDS011;47127;47.516;8.596;2023-07-29T01:19:55;6.22;;;3.45;;
61252;SDS011;47127;47.516;8.596;2023-07-29T01:22:34;8.55;;;4.03;;
61252;SDS011;47127;47.516;8.596;2023-07-29T01:25:02;7.05;;;4.03;;
61252;SDS011;47127;47.516;8.596;2023-07-29T01:27:28;95.70;;;6.30;;
61252;SDS011;47127;47.516;8.596;2023-07-29T01:29:55;126.07;;;7.50;;
61252;SDS011;47127;47.516;8.596;2023-07-29T01:35:05;53.30;;;4.72;;
61252;SDS011;47127;47.516;8.596;2023-07-29T01:38:03;8.98;;;3.42;;
61252;SDS011;47127;47.516;8.596;2023-07-29T01:40:43;6.07;;;2.80;;
61252;SDS011;47127;47.516;8.596;2023-07-29T01:43:10;9.05;;;3.35;;
61252;SDS011;47127;47.516;8.596;2023-07-29T01:45:36;6.03;;;3.28;;
61252;SDS011;47127;47.516;8.596;2023-07-29T01:48:07;10.50;;;2.83;;
61252;SDS011;47127;47.516;8.596;2023-07-29T01:50:33;12.65;;;3.78;;
61252;SDS011;47127;47.516;8.596;2023-07-29T01:52:59;7.65;;;3.20;;
61252;SDS011;47127;47.516;8.596;2023-07-29T01:55:24;49.17;;;4.72;;
61252;SDS011;47127;47.516;8.596;2023-07-29T01:57:50;11.48;;;3.85;;
61252;SDS011;47127;47.516;8.596;2023-07-29T02:00:19;12.00;;;3.88;;
61252;SDS011;47127;47.516;8.596;2023-07-29T02:02:44;16.73;;;3.83;;
61252;SDS011;47127;47.516;8.596;2023-07-29T02:05:10;15.95;;;3.90;;
61252;SDS011;47127;47.516;8.596;2023-07-29T02:07:36;7.35;;;3.63;;
61252;SDS011;47127;47.516;8.596;2023-07-29T02:10:01;6.97;;;3.90;;
61252;SDS011;47127;47.516;8.596;2023-07-29T02:12:27;6.90;;;3.72;;
61252;SDS011;47127;47.516;8.596;2023-07-29T02:14:53;7.47;;;3.50;;
61252;SDS011;47127;47.516;8.596;2023-07-29T02:17:18;5.38;;;3.50;;
61252;SDS011;47127;47.516;8.596;2023-07-29T02:19:44;6.80;;;3.63;;
61252;SDS011;47127;47.516;8.596;2023-07-29T02:22:12;8.82;;;5.00;;
61252;SDS011;47127;47.516;8.596;2023-07-29T02:24:39;8.50;;;4.82;;
61252;SDS011;47127;47.516;8.596;2023-07-29T02:27:04;12.93;;;5.07;;
61252;SDS011;47127;47.516;8.596;2023-07-29T02:29:30;7.72;;;4.60;;
61252;SDS011;47127;47.516;8.596;2023-07-29T02:31:58;10.50;;;5.20;;
61252;SDS011;47127;47.516;8.596;2023-07-29T02:34:24;8.82;;;5.13;;
61252;SDS011;47127;47.516;8.596;2023-07-29T02:36:50;10.95;;;4.72;;
61252;SDS011;47127;47.516;8.596;2023-07-29T02:39:15;8.40;;;4.20;;
61252;SDS011;47127;47.516;8.596;2023-07-29T02:41:41;6.78;;;4.15;;
61252;SDS011;47127;47.516;8.596;2023-07-29T02:44:06;7.45;;;4.15;;
61252;SDS011;47127;47.516;8.596;2023-07-29T02:46:32;9.10;;;4.30;;
61252;SDS011;47127;47.516;8.596;2023-07-29T02:48:57;6.70;;;4.10;;
61252;SDS011;47127;47.516;8.596;2023-07-29T02:51:23;6.80;;;3.92;;
61252;SDS011;47127;47.516;8.596;2023-07-29T02:53:48;7.47;;;4.22;;
61252;SDS011;47127;47.516;8.596;2023-07-29T02:56:14;6.32;;;3.45;;
61252;SDS011;47127;47.516;8.596;2023-07-29T02:58:39;7.53;;;4.20;;
61252;SDS011;47127;47.516;8.596;2023-07-29T03:01:05;7.18;;;3.88;;
61252;SDS011;47127;47.516;8.596;2023-07-29T03:03:31;6.22;;;3.83;;
61252;SDS011;47127;47.516;8.596;2023-07-29T03:06:07;10.23;;;3.80;;
61252;SDS011;47127;47.516;8.596;2023-07-29T03:08:35;5.55;;;3.55;;
61252;SDS011;47127;47.516;8.596;2023-07-29T03:11:07;6.05;;;3.35;;
61252;SDS011;47127;47.516;8.596;2023-07-29T03:13:35;7.20;;;3.60;;
61252;SDS011;47127;47.516;8.596;2023-07-29T03:16:14;5.78;;;3.10;;
61252;SDS011;47127;47.516;8.596;2023-07-29T03:18:41;7.20;;;3.83;;
61252;SDS011;47127;47.516;8.596;2023-07-29T03:21:07;8.05;;;3.90;;
61252;SDS011;47127;47.516;8.596;2023-07-29T03:23:34;7.45;;;3.60;;
61252;SDS011;47127;47.516;8.596;2023-07-29T03:26:00;5.32;;;3.25;;
61252;SDS011;47127;47.516;8.596;2023-07-29T03:28:29;5.47;;;3.17;;
61252;SDS011;47127;47.516;8.596;2023-07-29T03:30:57;8.15;;;3.20;;
61252;SDS011;47127;47.516;8.596;2023-07-29T03:33:24;5.93;;;3.50;;
61252;SDS011;47127;47.516;8.596;2023-07-29T03:35:52;6.38;;;3.58;;
61252;SDS011;47127;47.516;8.596;2023-07-29T03:38:18;7.50;;;3.72;;
61252;SDS011;47127;47.516;8.596;2023-07-29T03:40:43;6.80;;;3.60;;
61252;SDS011;47127;47.516;8.596;2023-07-29T03:43:09;6.88;;;3.15;;
61252;SDS011;47127;47.516;8.596;2023-07-29T03:45:35;7.47;;;3.38;;
61252;SDS011;47127;47.516;8.596;2023-07-29T03:48:01;7.68;;;3.58;;
61252;SDS011;47127;47.516;8.596;2023-07-29T03:50:27;6.43;;;3.17;;
61252;SDS011;47127;47.516;8.596;2023-07-29T03:52:54;8.18;;;3.50;;
61252;SDS011;47127;47.516;8.596;2023-07-29T03:55:20;6.65;;;3.30;;
61252;SDS011;47127;47.516;8.596;2023-07-29T03:57:46;6.80;;;3.80;;
61252;SDS011;47127;47.516;8.596;2023-07-29T04:00:11;7.18;;;4.18;;
61252;SDS011;47127;47.516;8.596;2023-07-29T04:02:37;8.32;;;4.10;;
61252;SDS011;47127;47.516;8.596;2023-07-29T04:05:03;12.80;;;4.78;;
61252;SDS011;47127;47.516;8.596;2023-07-29T04:07:30;8.25;;;3.78;;
61252;SDS011;47127;47.516;8.596;2023-07-29T04:09:56;8.63;;;3.92;;
61252;SDS011;47127;47.516;8.596;2023-07-29T04:12:22;8.32;;;3.50;;
61252;SDS011;47127;47.516;8.596;2023-07-29T04:14:48;7.30;;;3.38;;
61252;SDS011;47127;47.516;8.596;2023-07-29T04:17:14;7.20;;;3.97;;
61252;SDS011;47127;47.516;8.596;2023-07-29T04:19:40;8.50;;;3.95;;
61252;SDS011;47127;47.516;8.596;2023-07-29T04:22:05;8.68;;;4.07;;
61252;SDS011;47127;47.516;8.596;2023-07-29T04:24:32;6.68;;;3.55;;
61252;SDS011;47127;47.516;8.596;2023-07-29T04:26:58;6.60;;;3.95;;
61252;SDS011;47127;47.516;8.596;2023-07-29T04:29:23;8.13;;;3.75;;
61252;SDS011;47127;47.516;8.596;2023-07-29T04:31:49;6.82;;;3.67;;
61252;SDS011;47127;47.516;8.596;2023-07-29T04:34:15;8.23;;;4.10;;
61252;SDS011;47127;47.516;8.596;2023-07-29T04:36:42;6.60;;;4.03;;
61252;SDS011;47127;47.516;8.596;2023-07-29T04:39:07;7.72;;;3.88;;
61252;SDS011;47127;47.516;8.596;2023-07-29T04:41:33;7.53;;;3.42;;
61252;SDS011;47127;47.516;8.596;2023-07-29T04:43:58;9.13;;;3.92;;
61252;SDS011;47127;47.516;8.596;2023-07-29T04:46:24;7.60;;;3.88;;
61252;SDS011;47127;47.516;8.596;2023-07-29T04:48:49;8.00;;;3.58;;
61252;SDS011;47127;47.516;8.596;2023-07-29T04:51:15;7.28;;;3.78;;
61252;SDS011;47127;47.516;8.596;2023-07-29T04:53:40;10.07;;;3.92;;
61252;SDS011;47127;47.516;8.596;2023-07-29T04:56:06;8.95;;;4.18;;
61252;SDS011;47127;47.516;8.596;2023-07-29T04:58:32;10.85;;;3.80;;
61252;SDS011;47127;47.516;8.596;2023-07-29T05:01:00;6.95;;;3.40;;
61252;SDS011;47127;47.516;8.596;2023-07-29T05:03:26;6.70;;;3.63;;
61252;SDS011;47127;47.516;8.596;2023-07-29T05:05:51;10.27;;;4.10;;
61252;SDS011;47127;47.516;8.596;2023-07-29T05:08:19;6.95;;;3.97;;
61252;SDS011;47127;47.516;8.596;2023-07-29T05:10:48;12.02;;;3.70;;
61252;SDS011;47127;47.516;8.596;2023-07-29T05:13:14;6.88;;;3.97;;
61252;SDS011;47127;47.516;8.596;2023-07-29T05:15:40;6.80;;;3.53;;
61252;SDS011;47127;47.516;8.596;2023-07-29T05:18:06;8.85;;;3.72;;
61252;SDS011;47127;47.516;8.596;2023-07-29T05:20:31;6.65;;;3.50;;
61252;SDS011;47127;47.516;8.596;2023-07-29T05:22:57;9.13;;;3.53;;
61252;SDS011;47127;47.516;8.596;2023-07-29T05:25:22;6.88;;;3.67;;
61252;SDS011;47127;47.516;8.596;2023-07-29T05:27:48;6.75;;;3.85;;
61252;SDS011;47127;47.516;8.596;2023-07-29T05:30:13;6.32;;;3.50;;
61252;SDS011;47127;47.516;8.596;2023-07-29T05:32:39;7.70;;;3.85;;
61252;SDS011;47127;47.516;8.596;2023-07-29T05:35:04;5.15;;;3.33;;
61252;SDS011;47127;47.516;8.596;2023-07-29T05:37:31;6.32;;;3.60;;
61252;SDS011;47127;47.516;8.596;2023-07-29T05:39:56;8.68;;;4.10;;
61252;SDS011;47127;47.516;8.596;2023-07-29T05:42:22;7.47;;;3.78;;
61252;SDS011;47127;47.516;8.596;2023-07-29T05:44:47;6.50;;;3.50;;
61252;SDS011;47127;47.516;8.596;2023-07-29T05:47:13;5.32;;;3.20;;
61252;SDS011;47127;47.516;8.596;2023-07-29T05:49:38;6.00;;;3.42;;
61252;SDS011;47127;47.516;8.596;2023-07-29T05:52:04;6.57;;;3.90;;
61252;SDS011;47127;47.516;8.596;2023-07-29T05:54:31;5.80;;;3.90;;
61252;SDS011;47127;47.516;8.596;2023-07-29T05:56:56;9.45;;;4.00;;
61252;SDS011;47127;47.516;8.596;2023-07-29T05:59:22;8.23;;;4.65;;
61252;SDS011;47127;47.516;8.596;2023-07-29T06:01:47;9.50;;;3.40;;
61252;SDS011;47127;47.516;8.596;2023-07-29T06:04:14;6.68;;;4.00;;
61252;SDS011;47127;47.516;8.596;2023-07-29T06:06:40;6.60;;;3.60;;
61252;SDS011;47127;47.516;8.596;2023-07-29T06:09:05;8.65;;;4.18;;
61252;SDS011;47127;47.516;8.596;2023-07-29T06:11:31;7.60;;;3.78;;
61252;SDS011;47127;47.516;8.596;2023-07-29T06:13:56;9.35;;;3.75;;
61252;SDS011;47127;47.516;8.596;2023-07-29T06:16:22;6.45;;;3.50;;
61252;SDS011;47127;47.516;8.596;2023-07-29T06:18:47;6.00;;;3.72;;
61252;SDS011;47127;47.516;8.596;2023-07-29T06:21:13;7.93;;;4.00;;
61252;SDS011;47127;47.516;8.596;2023-07-29T06:23:42;8.63;;;4.10;;
61252;SDS011;47127;47.516;8.596;2023-07-29T06:26:08;6.15;;;3.60;;
61252;SDS011;47127;47.516;8.596;2023-07-29T06:28:34;7.03;;;4.00;;
61252;SDS011;47127;47.516;8.596;2023-07-29T06:30:59;10.10;;;3.90;;
61252;SDS011;47127;47.516;8.596;2023-07-29T06:33:25;6.10;;;3.35;;
61252;SDS011;47127;47.516;8.596;2023-07-29T06:35:50;9.85;;;3.80;;
61252;SDS011;47127;47.516;8.596;2023-07-29T06:38:16;6.13;;;3.50;;
61252;SDS011;47127;47.516;8.596;2023-07-29T06:40:46;7.38;;;3.42;;
61252;SDS011;47127;47.516;8.596;2023-07-29T06:43:15;7.88;;;3.55;;
61252;SDS011;47127;47.516;8.596;2023-07-29T06:45:41;8.48;;;3.40;;
61252;SDS011;47127;47.516;8.596;2023-07-29T06:48:06;8.60;;;3.60;;
61252;SDS011;47127;47.516;8.596;2023-07-29T06:50:32;8.10;;;3.67;;
61252;SDS011;47127;47.516;8.596;2023-07-29T06:52:57;6.80;;;3.60;;
61252;SDS011;47127;47.516;8.596;2023-07-29T06:55:23;11.15;;;4.15;;
61252;SDS011;47127;47.516;8.596;2023-07-29T06:57:49;10.45;;;3.20;;
61252;SDS011;47127;47.516;8.596;2023-07-29T07:00:14;6.50;;;3.33;;
61252;SDS011;47127;47.516;8.596;2023-07-29T07:02:40;6.60;;;3.05;;
61252;SDS011;47127;47.516;8.596;2023-07-29T07:05:06;6.15;;;3.60;;
61252;SDS011;47127;47.516;8.596;2023-07-29T07:07:32;7.82;;;3.83;;
61252;SDS011;47127;47.516;8.596;2023-07-29T07:09:57;7.40;;;3.45;;
61252;SDS011;47127;47.516;8.596;2023-07-29T07:12:23;7.45;;;3.40;;
61252;SDS011;47127;47.516;8.596;2023-07-29T07:14:48;7.22;;;3.70;;
61252;SDS011;47127;47.516;8.596;2023-07-29T07:17:14;7.60;;;3.35;;
61252;SDS011;47127;47.516;8.596;2023-07-29T07:19:40;7.10;;;3.22;;
61252;SDS011;47127;47.516;8.596;2023-07-29T07:22:05;5.80;;;3.28;;
61252;SDS011;47127;47.516;8.596;2023-07-29T07:24:31;4.68;;;3.10;;
61252;SDS011;47127;47.516;8.596;2023-07-29T07:26:57;5.72;;;3.40;;
61252;SDS011;47127;47.516;8.596;2023-07-29T07:29:22;6.35;;;3.47;;
61252;SDS011;47127;47.516;8.596;2023-07-29T07:31:51;7.53;;;3.67;;
61252;SDS011;47127;47.516;8.596;2023-07-29T07:34:18;6.05;;;3.53;;
61252;SDS011;47127;47.516;8.596;2023-07-29T07:36:47;6.18;;;3.30;;
61252;SDS011;47127;47.516;8.596;2023-07-29T07:39:13;7.57;;;3.72;;
61252;SDS011;47127;47.516;8.596;2023-07-29T07:41:39;7.60;;;3.65;;
61252;SDS011;47127;47.516;8.596;2023-07-29T07:44:05;8.07;;;3.67;;
61252;SDS011;47127;47.516;8.596;2023-07-29T07:46:31;6.07;;;3.25;;
61252;SDS011;47127;47.516;8.596;2023-07-29T07:48:56;6.22;;;3.38;;
61252;SDS011;47127;47.516;8.596;2023-07-29T07:51:22;7.97;;;4.05;;
61252;SDS011;47127;47.516;8.596;2023-07-29T07:53:48;7.20;;;3.25;;
61252;SDS011;47127;47.516;8.596;2023-07-29T07:56:15;10.15;;;3.72;;
61252;SDS011;47127;47.516;8.596;2023-07-29T07:58:41;7.43;;;3.40;;
61252;SDS011;47127;47.516;8.596;2023-07-29T08:01:07;6.35;;;3.28;;
61252;SDS011;47127;47.516;8.596;2023-07-29T08:03:34;6.00;;;3.42;;
61252;SDS011;47127;47.516;8.596;2023-07-29T08:06:00;7.82;;;3.58;;
61252;SDS011;47127;47.516;8.596;2023-07-29T08:08:26;6.80;;;3.60;;
61252;SDS011;47127;47.516;8.596;2023-07-29T08:10:53;6.93;;;3.55;;
61252;SDS011;47127;47.516;8.596;2023-07-29T08:13:20;6.55;;;4.03;;
61252;SDS011;47127;47.516;8.596;2023-07-29T08:15:49;7.35;;;3.78;;
61252;SDS011;47127;47.516;8.596;2023-07-29T08:18:15;6.40;;;4.00;;
61252;SDS011;47127;47.516;8.596;2023-07-29T08:20:50;7.18;;;4.03;;
61252;SDS011;47127;47.516;8.596;2023-07-29T08:23:17;7.80;;;4.38;;
61252;SDS011;47127;47.516;8.596;2023-07-29T08:25:43;7.45;;;4.03;;
61252;SDS011;47127;47.516;8.596;2023-07-29T08:28:08;8.60;;;4.53;;
61252;SDS011;47127;47.516;8.596;2023-07-29T08:30:36;7.95;;;4.30;;
61252;SDS011;47127;47.516;8.596;2023-07-29T08:33:01;6.55;;;3.95;;
61252;SDS011;47127;47.516;8.596;2023-07-29T08:35:27;7.13;;;3.90;;
61252;SDS011;47127;47.516;8.596;2023-07-29T08:37:52;9.57;;;4.10;;
61252;SDS011;47127;47.516;8.596;2023-07-29T08:40:18;10.15;;;4.07;;
61252;SDS011;47127;47.516;8.596;2023-07-29T08:42:45;5.80;;;3.22;;
61252;SDS011;47127;47.516;8.596;2023-07-29T08:45:12;7.90;;;3.35;;
61252;SDS011;47127;47.516;8.596;2023-07-29T08:47:39;7.25;;;3.65;;
61252;SDS011;47127;47.516;8.596;2023-07-29T08:50:05;5.95;;;3.30;;
61252;SDS011;47127;47.516;8.596;2023-07-29T08:52:31;7.28;;;3.58;;
61252;SDS011;47127;47.516;8.596;2023-07-29T08:54:57;5.80;;;2.90;;
61252;SDS011;47127;47.516;8.596;2023-07-29T08:57:23;5.43;;;3.10;;
61252;SDS011;47127;47.516;8.596;2023-07-29T08:59:51;8.32;;;4.55;;
61252;SDS011;47127;47.516;8.596;2023-07-29T09:02:16;7.38;;;3.53;;
61252;SDS011;47127;47.516;8.596;2023-07-29T09:04:43;7.10;;;2.97;;
61252;SDS011;47127;47.516;8.596;2023-07-29T09:07:09;6.93;;;3.75;;
61252;SDS011;47127;47.516;8.596;2023-07-29T09:09:35;8.23;;;3.20;;
61252;SDS011;47127;47.516;8.596;2023-07-29T09:12:01;5.22;;;2.95;;
61252;SDS011;47127;47.516;8.596;2023-07-29T09:14:27;5.03;;;3.05;;
61252;SDS011;47127;47.516;8.596;2023-07-29T09:16:53;6.45;;;3.50;;
61252;SDS011;47127;47.516;8.596;2023-07-29T09:19:18;6.03;;;3.28;;
61252;SDS011;47127;47.516;8.596;2023-07-29T09:21:45;6.07;;;2.83;;
61252;SDS011;47127;47.516;8.596;2023-07-29T09:24:12;4.93;;;3.22;;
61252;SDS011;47127;47.516;8.596;2023-07-29T09:26:40;7.68;;;3.33;;
61252;SDS011;47127;47.516;8.596;2023-07-29T09:29:14;8.20;;;2.95;;
61252;SDS011;47127;47.516;8.596;2023-07-29T09:31:40;6.53;;;2.65;;
61252;SDS011;47127;47.516;8.596;2023-07-29T09:34:05;6.22;;;3.33;;
61252;SDS011;47127;47.516;8.596;2023-07-29T09:36:31;4.28;;;2.38;;
61252;SDS011;47127;47.516;8.596;2023-07-29T09:38:58;4.38;;;2.70;;
61252;SDS011;47127;47.516;8.596;2023-07-29T09:41:25;6.25;;;2.13;;
61252;SDS011;47127;47.516;8.596;2023-07-29T09:43:55;7.05;;;2.80;;
61252;SDS011;47127;47.516;8.596;2023-07-29T09:46:23;5.20;;;2.60;;
61252;SDS011;47127;47.516;8.596;2023-07-29T09:48:52;4.72;;;2.50;;
61252;SDS011;47127;47.516;8.596;2023-07-29T09:51:18;5.07;;;2.75;;
61252;SDS011;47127;47.516;8.596;2023-07-29T09:53:44;5.82;;;2.70;;
61252;SDS011;47127;47.516;8.596;2023-07-29T09:56:13;8.43;;;3.03;;
61252;SDS011;47127;47.516;8.596;2023-07-29T09:58:39;8.35;;;3.00;;
61252;SDS011;47127;47.516;8.596;2023-07-29T10:01:05;6.85;;;2.60;;
61252;SDS011;47127;47.516;8.596;2023-07-29T10:03:31;5.40;;;2.67;;
61252;SDS011;47127;47.516;8.596;2023-07-29T10:06:02;4.18;;;2.42;;
61252;SDS011;47127;47.516;8.596;2023-07-29T10:08:32;4.70;;;2.40;;
61252;SDS011;47127;47.516;8.596;2023-07-29T10:11:01;5.63;;;3.05;;
61252;SDS011;47127;47.516;8.596;2023-07-29T10:13:27;7.57;;;2.97;;
61252;SDS011;47127;47.516;8.596;2023-07-29T10:15:55;4.80;;;3.00;;
61252;SDS011;47127;47.516;8.596;2023-07-29T10:18:21;6.88;;;2.30;;
61252;SDS011;47127;47.516;8.596;2023-07-29T10:20:48;7.15;;;2.88;;
61252;SDS011;47127;47.516;8.596;2023-07-29T10:23:17;7.40;;;3.75;;
61252;SDS011;47127;47.516;8.596;2023-07-29T10:25:46;6.97;;;3.20;;
61252;SDS011;47127;47.516;8.596;2023-07-29T10:28:15;5.75;;;2.85;;
61252;SDS011;47127;47.516;8.596;2023-07-29T10:30:43;5.43;;;2.83;;
61252;SDS011;47127;47.516;8.596;2023-07-29T10:33:09;5.75;;;2.72;;
61252;SDS011;47127;47.516;8.596;2023-07-29T10:35:35;3.88;;;2.20;;
61252;SDS011;47127;47.516;8.596;2023-07-29T10:38:02;3.42;;;2.30;;
61252;SDS011;47127;47.516;8.596;2023-07-29T10:43:31;5.95;;;2.28;;
61252;SDS011;47127;47.516;8.596;2023-07-29T10:46:16;3.08;;;1.92;;
61252;SDS011;47127;47.516;8.596;2023-07-29T10:48:43;3.75;;;2.03;;
61252;SDS011;47127;47.516;8.596;2023-07-29T10:51:26;4.35;;;1.90;;
61252;SDS011;47127;47.516;8.596;2023-07-29T10:53:59;3.83;;;1.98;;
61252;SDS011;47127;47.516;8.596;2023-07-29T10:56:34;5.32;;;2.53;;
61252;SDS011;47127;47.516;8.596;2023-07-29T11:01:42;3.58;;;1.95;;
61252;SDS011;47127;47.516;8.596;2023-07-29T11:04:25;5.28;;;1.90;;
61252;SDS011;47127;47.516;8.596;2023-07-29T11:12:33;4.13;;;2.20;;
61252;SDS011;47127;47.516;8.596;2023-07-29T11:15:12;8.32;;;2.78;;
61252;SDS011;47127;47.516;8.596;2023-07-29T11:17:54;4.82;;;2.50;;
61252;SDS011;47127;47.516;8.596;2023-07-29T11:20:25;5.55;;;2.30;;
61252;SDS011;47127;47.516;8.596;2023-07-29T11:22:57;5.38;;;2.22;;
61252;SDS011;47127;47.516;8.596;2023-07-29T11:25:24;7.10;;;2.95;;
61252;SDS011;47127;47.516;8.596;2023-07-29T11:27:51;5.22;;;2.33;;
61252;SDS011;47127;47.516;8.596;2023-07-29T11:30:18;7.40;;;2.75;;
61252;SDS011;47127;47.516;8.596;2023-07-29T11:32:45;7.75;;;3.25;;
61252;SDS011;47127;47.516;8.596;2023-07-29T11:35:12;5.75;;;2.97;;
61252;SDS011;47127;47.516;8.596;2023-07-29T11:37:40;5.45;;;2.35;;
61252;SDS011;47127;47.516;8.596;2023-07-29T11:40:07;5.25;;;2.22;;
61252;SDS011;47127;47.516;8.596;2023-07-29T11:42:35;4.82;;;2.50;;
61252;SDS011;47127;47.516;8.596;2023-07-29T11:45:02;5.85;;;2.80;;
61252;SDS011;47127;47.516;8.596;2023-07-29T11:47:31;4.50;;;2.40;;
61252;SDS011;47127;47.516;8.596;2023-07-29T11:50:01;4.63;;;2.40;;
61252;SDS011;47127;47.516;8.596;2023-07-29T11:52:27;3.85;;;2.42;;
61252;SDS011;47127;47.516;8.596;2023-07-29T11:54:53;5.13;;;2.20;;
61252;SDS011;47127;47.516;8.596;2023-07-29T11:57:19;4.00;;;2.45;;
61252;SDS011;47127;47.516;8.596;2023-07-29T11:59:45;6.15;;;2.70;;
61252;SDS011;47127;47.516;8.596;2023-07-29T12:02:15;5.47;;;2.75;;
61252;SDS011;47127;47.516;8.596;2023-07-29T12:04:43;6.18;;;2.53;;
61252;SDS011;47127;47.516;8.596;2023-07-29T12:07:11;5.88;;;2.70;;
61252;SDS011;47127;47.516;8.596;2023-07-29T12:09:39;4.80;;;2.50;;
61252;SDS011;47127;47.516;8.596;2023-07-29T12:12:05;4.20;;;2.42;;
61252;SDS011;47127;47.516;8.596;2023-07-29T12:14:31;6.65;;;2.30;;
61252;SDS011;47127;47.516;8.596;2023-07-29T12:17:01;5.03;;;2.65;;
61252;SDS011;47127;47.516;8.596;2023-07-29T12:19:32;6.70;;;2.90;;
61252;SDS011;47127;47.516;8.596;2023-07-29T12:22:00;4.30;;;2.40;;
61252;SDS011;47127;47.516;8.596;2023-07-29T12:24:26;5.93;;;2.50;;
61252;SDS011;47127;47.516;8.596;2023-07-29T12:26:52;3.88;;;2.42;;
61252;SDS011;47127;47.516;8.596;2023-07-29T12:29:18;9.82;;;4.10;;
61252;SDS011;47127;47.516;8.596;2023-07-29T12:31:47;7.22;;;3.28;;
61252;SDS011;47127;47.516;8.596;2023-07-29T12:34:17;4.05;;;2.30;;
61252;SDS011;47127;47.516;8.596;2023-07-29T12:36:45;11.23;;;4.55;;
61252;SDS011;47127;47.516;8.596;2023-07-29T12:39:25;7.70;;;2.60;;
61252;SDS011;47127;47.516;8.596;2023-07-29T12:41:52;6.78;;;3.20;;
61252;SDS011;47127;47.516;8.596;2023-07-29T12:44:19;7.65;;;3.42;;
61252;SDS011;47127;47.516;8.596;2023-07-29T12:46:45;4.63;;;2.55;;
61252;SDS011;47127;47.516;8.596;2023-07-29T12:49:11;5.50;;;2.42;;
61252;SDS011;47127;47.516;8.596;2023-07-29T12:51:37;7.35;;;3.00;;
61252;SDS011;47127;47.516;8.596;2023-07-29T12:54:03;6.38;;;2.25;;
61252;SDS011;47127;47.516;8.596;2023-07-29T12:56:29;3.95;;;2.30;;
61252;SDS011;47127;47.516;8.596;2023-07-29T12:58:56;4.97;;;2.40;;
61252;SDS011;47127;47.516;8.596;2023-07-29T13:01:22;5.20;;;2.40;;
61252;SDS011;47127;47.516;8.596;2023-07-29T13:03:48;5.07;;;2.10;;
61252;SDS011;47127;47.516;8.596;2023-07-29T13:06:14;4.65;;;2.35;;
61252;SDS011;47127;47.516;8.596;2023-07-29T13:08:40;3.78;;;2.00;;
61252;SDS011;47127;47.516;8.596;2023-07-29T13:11:06;4.97;;;2.10;;
61252;SDS011;47127;47.516;8.596;2023-07-29T13:13:31;3.30;;;1.80;;
61252;SDS011;47127;47.516;8.596;2023-07-29T13:15:57;5.55;;;1.90;;
61252;SDS011;47127;47.516;8.596;2023-07-29T13:18:23;3.33;;;1.55;;
61252;SDS011;47127;47.516;8.596;2023-07-29T13:20:48;3.45;;;1.75;;
61252;SDS011;47127;47.516;8.596;2023-07-29T13:23:14;3.53;;;2.13;;
61252;SDS011;47127;47.516;8.596;2023-07-29T13:25:40;5.15;;;1.77;;
61252;SDS011;47127;47.516;8.596;2023-07-29T13:28:06;2.90;;;1.67;;
61252;SDS011;47127;47.516;8.596;2023-07-29T13:30:32;5.43;;;2.13;;
61252;SDS011;47127;47.516;8.596;2023-07-29T13:32:58;7.05;;;2.53;;
61252;SDS011;47127;47.516;8.596;2023-07-29T13:35:24;5.20;;;1.63;;
61252;SDS011;47127;47.516;8.596;2023-07-29T13:37:50;3.53;;;1.63;;
61252;SDS011;47127;47.516;8.596;2023-07-29T13:40:16;2.78;;;1.20;;
61252;SDS011;47127;47.516;8.596;2023-07-29T13:42:41;4.85;;;1.60;;
61252;SDS011;47127;47.516;8.596;2023-07-29T13:45:07;5.80;;;1.70;;
61252;SDS011;47127;47.516;8.596;2023-07-29T13:47:33;3.92;;;1.58;;
61252;SDS011;47127;47.516;8.596;2023-07-29T13:49:59;2.60;;;1.40;;
61252;SDS011;47127;47.516;8.596;2023-07-29T13:52:25;3.10;;;1.60;;
61252;SDS011;47127;47.516;8.596;2023-07-29T13:54:50;2.75;;;1.38;;
61252;SDS011;47127;47.516;8.596;2023-07-29T13:57:16;3.13;;;1.52;;
61252;SDS011;47127;47.516;8.596;2023-07-29T13:59:41;3.90;;;1.45;;
61252;SDS011;47127;47.516;8.596;2023-07-29T14:02:07;3.65;;;1.52;;
61252;SDS011;47127;47.516;8.596;2023-07-29T14:04:33;2.78;;;1.50;;
61252;SDS011;47127;47.516;8.596;2023-07-29T14:06:58;3.20;;;1.90;;
61252;SDS011;47127;47.516;8.596;2023-07-29T14:09:25;3.42;;;1.90;;
61252;SDS011;47127;47.516;8.596;2023-07-29T14:11:51;5.10;;;2.47;;
61252;SDS011;47127;47.516;8.596;2023-07-29T14:14:16;4.28;;;2.00;;
61252;SDS011;47127;47.516;8.596;2023-07-29T14:16:42;4.13;;;1.73;;
61252;SDS011;47127;47.516;8.596;2023-07-29T14:19:07;3.92;;;2.10;;
61252;SDS011;47127;47.516;8.596;2023-07-29T14:21:33;5.20;;;2.00;;
61252;SDS011;47127;47.516;8.596;2023-07-29T14:23:58;3.67;;;1.92;;
61252;SDS011;47127;47.516;8.596;2023-07-29T14:26:25;5.10;;;1.80;;
61252;SDS011;47127;47.516;8.596;2023-07-29T14:28:50;3.38;;;1.98;;
61252;SDS011;47127;47.516;8.596;2023-07-29T14:31:16;3.25;;;1.90;;
61252;SDS011;47127;47.516;8.596;2023-07-29T14:33:45;4.57;;;2.40;;
61252;SDS011;47127;47.516;8.596;2023-07-29T14:36:10;5.43;;;2.00;;
61252;SDS011;47127;47.516;8.596;2023-07-29T14:38:36;4.70;;;2.03;;
61252;SDS011;47127;47.516;8.596;2023-07-29T14:41:02;3.47;;;1.92;;
61252;SDS011;47127;47.516;8.596;2023-07-29T14:43:29;3.65;;;1.60;;
61252;SDS011;47127;47.516;8.596;2023-07-29T14:45:55;4.90;;;1.90;;
61252;SDS011;47127;47.516;8.596;2023-07-29T14:48:21;6.47;;;2.30;;
61252;SDS011;47127;47.516;8.596;2023-07-29T14:50:47;3.70;;;1.95;;
61252;SDS011;47127;47.516;8.596;2023-07-29T14:53:13;5.07;;;2.15;;
61252;SDS011;47127;47.516;8.596;2023-07-29T14:55:39;4.78;;;1.90;;
61252;SDS011;47127;47.516;8.596;2023-07-29T14:58:04;5.18;;;2.45;;
61252;SDS011;47127;47.516;8.596;2023-07-29T15:00:30;6.85;;;2.08;;
61252;SDS011;47127;47.516;8.596;2023-07-29T15:02:55;3.92;;;2.30;;